Time;durP1;ratioP1;P1;durP2;ratioP2;P2;SDS_P1;SDS_P2;PMS_P1;PMS_P2;Temp;Humidity;BMP_temperature;BMP_pressure;BME280_temperature;BME280_humidity;BME280_pressure;Samples;Min_cycle;Max_cycle;Signal;HPM_P1;HPM_P2
2023/06/02 00:01:13;;;;;;;6.95;4.43;;;;;;;;;;4966321;28;20019;-64
2023/06/02 00:03:40;;;;;;;5.93;4.40;;;;;;;;;;4964165;28;20039;-61
2023/06/02 00:06:08;;;;;;;5.93;4.32;;;;;;;;;;4975308;28;20463;-60
2023/06/02 00:08:34;;;;;;;6.90;4.55;;;;;;;;;;5004419;28;20052;-61
2023/06/02 00:11:00;;;;;;;5.65;4.63;;;;;;;;;;5000479;28;20050;-61
2023/06/02 00:13:25;;;;;;;5.22;4.28;;;;;;;;;;4999169;28;20038;-64
2023/06/02 00:15:50;;;;;;;5.47;4.20;;;;;;;;;;4985021;28;20064;-64
2023/06/02 00:18:16;;;;;;;5.40;4.30;;;;;;;;;;5006840;28;20026;-64
2023/06/02 00:20:41;;;;;;;5.77;4.43;;;;;;;;;;5001722;28;20326;-64
2023/06/02 00:23:08;;;;;;;5.53;3.80;;;;;;;;;;4999857;28;20315;-64
2023/06/02 00:25:33;;;;;;;7.03;4.50;;;;;;;;;;5000363;28;20281;-62
2023/06/02 00:27:58;;;;;;;5.15;4.03;;;;;;;;;;5004552;28;20500;-63
2023/06/02 00:30:24;;;;;;;5.00;4.03;;;;;;;;;;4986158;28;20140;-62
2023/06/02 00:32:49;;;;;;;6.93;4.13;;;;;;;;;;5000625;28;20271;-63
2023/06/02 00:35:15;;;;;;;6.13;4.33;;;;;;;;;;5004155;28;20404;-64
2023/06/02 00:37:40;;;;;;;5.55;3.97;;;;;;;;;;5002278;28;20281;-62
2023/06/02 00:40:06;;;;;;;6.30;4.05;;;;;;;;;;5001658;28;20052;-62
2023/06/02 00:42:32;;;;;;;5.90;4.07;;;;;;;;;;5000598;28;20124;-63
2023/06/02 00:44:57;;;;;;;5.95;4.30;;;;;;;;;;4987285;28;20571;-64
2023/06/02 00:47:22;;;;;;;6.03;4.00;;;;;;;;;;4990159;28;20041;-65
2023/06/02 00:49:48;;;;;;;6.70;4.20;;;;;;;;;;5005537;28;20268;-62
2023/06/02 00:52:13;;;;;;;6.13;4.80;;;;;;;;;;4971235;28;20296;-63
2023/06/02 00:54:39;;;;;;;5.55;4.00;;;;;;;;;;4982866;28;20038;-63
2023/06/02 00:57:04;;;;;;;6.50;4.45;;;;;;;;;;5000606;28;20521;-65
2023/06/02 00:59:29;;;;;;;6.00;4.05;;;;;;;;;;4971303;28;20531;-65
2023/06/02 01:01:54;;;;;;;5.60;3.88;;;;;;;;;;4986855;28;20152;-65
2023/06/02 01:04:20;;;;;;;5.70;3.80;;;;;;;;;;5002749;28;20046;-63
2023/06/02 01:06:48;;;;;;;5.38;4.07;;;;;;;;;;4977672;28;20041;-64
2023/06/02 01:09:13;;;;;;;5.57;4.05;;;;;;;;;;5002706;28;20100;-64
2023/06/02 01:11:38;;;;;;;6.32;4.03;;;;;;;;;;4994097;28;20047;-65
2023/06/02 01:14:04;;;;;;;5.63;3.80;;;;;;;;;;4991078;28;20564;-62
2023/06/02 01:16:30;;;;;;;6.05;3.95;;;;;;;;;;4985107;28;20527;-65
2023/06/02 01:18:55;;;;;;;6.72;4.30;;;;;;;;;;4976396;28;20092;-62
2023/06/02 01:21:23;;;;;;;6.07;4.17;;;;;;;;;;4989244;28;20482;-63
2023/06/02 01:23:51;;;;;;;5.38;4.25;;;;;;;;;;5002282;28;20451;-62
2023/06/02 01:26:16;;;;;;;4.93;3.70;;;;;;;;;;5000260;28;20034;-65
2023/06/02 01:28:41;;;;;;;4.93;3.53;;;;;;;;;;4997663;28;20488;-66
2023/06/02 01:31:10;;;;;;;5.00;3.77;;;;;;;;;;4997890;28;20485;-64
2023/06/02 01:33:39;;;;;;;6.45;4.30;;;;;;;;;;4990025;28;20046;-61
2023/06/02 01:36:04;;;;;;;6.55;4.05;;;;;;;;;;4991810;28;20049;-64
2023/06/02 01:38:30;;;;;;;4.85;3.60;;;;;;;;;;4992137;28;20191;-62
2023/06/02 01:40:56;;;;;;;6.38;3.65;;;;;;;;;;5002442;28;20038;-64
2023/06/02 01:43:21;;;;;;;5.25;3.92;;;;;;;;;;5001470;28;20096;-64
2023/06/02 01:45:46;;;;;;;6.85;3.88;;;;;;;;;;4984915;28;20026;-64
2023/06/02 01:48:12;;;;;;;5.72;3.90;;;;;;;;;;4994766;28;20065;-65
2023/06/02 01:50:37;;;;;;;5.80;3.53;;;;;;;;;;4998507;28;20436;-65
2023/06/02 01:53:03;;;;;;;5.47;3.77;;;;;;;;;;5011015;28;20033;-65
2023/06/02 01:55:28;;;;;;;5.80;3.70;;;;;;;;;;4999699;28;20380;-65
2023/06/02 01:57:53;;;;;;;5.77;3.80;;;;;;;;;;5002695;28;20042;-63
2023/06/02 02:00:19;;;;;;;5.95;4.03;;;;;;;;;;4995179;28;20273;-62
2023/06/02 02:02:45;;;;;;;5.43;3.88;;;;;;;;;;4998767;28;20029;-64
2023/06/02 02:05:10;;;;;;;4.97;3.55;;;;;;;;;;4987138;28;20157;-65
2023/06/02 02:07:36;;;;;;;6.65;4.10;;;;;;;;;;4990788;28;20050;-62
2023/06/02 02:10:02;;;;;;;6.95;4.20;;;;;;;;;;4986671;28;20386;-61
2023/06/02 02:12:28;;;;;;;7.63;4.00;;;;;;;;;;4996448;28;20471;-64
2023/06/02 02:14:56;;;;;;;4.75;3.42;;;;;;;;;;5004397;28;20117;-65
2023/06/02 02:17:25;;;;;;;5.10;3.55;;;;;;;;;;5004227;28;20038;-65
2023/06/02 02:19:50;;;;;;;5.43;3.53;;;;;;;;;;5002110;28;20514;-65
2023/06/02 02:22:16;;;;;;;4.88;3.58;;;;;;;;;;5005452;28;20029;-63
2023/06/02 02:24:41;;;;;;;6.05;3.90;;;;;;;;;;5004758;28;20157;-63
2023/06/02 02:27:08;;;;;;;7.93;3.90;;;;;;;;;;4998804;28;20436;-65
2023/06/02 02:29:33;;;;;;;5.53;4.20;;;;;;;;;;5000399;28;20304;-63
2023/06/02 02:31:58;;;;;;;5.35;3.65;;;;;;;;;;4993913;28;20500;-65
2023/06/02 02:34:25;;;;;;;4.40;3.70;;;;;;;;;;4992415;28;20589;-62
2023/06/02 02:36:51;;;;;;;6.05;3.65;;;;;;;;;;4997101;28;20445;-64
2023/06/02 02:39:17;;;;;;;5.50;4.10;;;;;;;;;;5001417;28;20404;-63
2023/06/02 02:41:42;;;;;;;6.88;3.63;;;;;;;;;;4992470;28;20037;-63
2023/06/02 02:44:07;;;;;;;4.17;3.43;;;;;;;;;;4999892;28;20125;-64
2023/06/02 02:46:33;;;;;;;5.75;3.92;;;;;;;;;;4988568;28;20437;-64
2023/06/02 02:48:58;;;;;;;7.13;3.77;;;;;;;;;;4999021;28;20515;-62
2023/06/02 02:51:23;;;;;;;5.53;3.60;;;;;;;;;;5006503;28;20308;-64
2023/06/02 02:53:48;;;;;;;4.00;3.37;;;;;;;;;;5006239;28;20281;-63
2023/06/02 02:56:14;;;;;;;5.43;3.60;;;;;;;;;;5005340;28;20292;-64
2023/06/02 02:58:40;;;;;;;6.07;3.83;;;;;;;;;;5001159;28;20362;-60
2023/06/02 03:01:08;;;;;;;4.80;3.42;;;;;;;;;;4998717;28;20044;-62
2023/06/02 03:03:33;;;;;;;5.25;3.60;;;;;;;;;;5004089;28;20033;-63
2023/06/02 03:06:01;;;;;;;6.83;3.53;;;;;;;;;;5012395;28;20409;-65
2023/06/02 03:08:27;;;;;;;5.78;3.65;;;;;;;;;;4998387;28;20285;-63
2023/06/02 03:10:52;;;;;;;6.60;3.72;;;;;;;;;;5017024;28;20046;-63
2023/06/02 03:13:17;;;;;;;5.73;3.60;;;;;;;;;;4981465;28;20047;-64
2023/06/02 03:15:42;;;;;;;6.43;3.53;;;;;;;;;;5008910;28;20280;-62
2023/06/02 03:18:08;;;;;;;5.82;3.40;;;;;;;;;;4981329;28;20081;-63
2023/06/02 03:20:36;;;;;;;4.40;3.60;;;;;;;;;;5003248;28;20042;-64
2023/06/02 03:23:02;;;;;;;4.97;3.28;;;;;;;;;;4993198;28;20117;-63
2023/06/02 03:25:27;;;;;;;5.13;3.50;;;;;;;;;;5000443;28;20224;-63
2023/06/02 03:27:52;;;;;;;5.00;3.53;;;;;;;;;;4999262;28;20249;-61
2023/06/02 03:30:17;;;;;;;5.43;3.53;;;;;;;;;;4992942;28;20339;-64
2023/06/02 03:32:43;;;;;;;5.40;3.50;;;;;;;;;;5010327;28;20301;-61
2023/06/02 03:35:08;;;;;;;6.70;3.97;;;;;;;;;;5009998;28;20053;-63
2023/06/02 03:37:33;;;;;;;5.00;3.33;;;;;;;;;;5002330;28;20623;-63
2023/06/02 03:39:59;;;;;;;5.13;3.57;;;;;;;;;;4993572;28;20038;-62
2023/06/02 03:42:24;;;;;;;5.07;4.10;;;;;;;;;;5001616;28;20324;-61
2023/06/02 03:44:49;;;;;;;5.03;3.60;;;;;;;;;;5005363;28;20042;-63
2023/06/02 03:47:15;;;;;;;5.65;3.63;;;;;;;;;;4995995;28;20038;-61
2023/06/02 03:49:40;;;;;;;5.60;3.70;;;;;;;;;;4999720;28;20408;-61
2023/06/02 03:52:06;;;;;;;5.35;4.15;;;;;;;;;;5006772;28;20050;-61
2023/06/02 03:54:31;;;;;;;5.63;3.50;;;;;;;;;;5006352;28;20030;-63
2023/06/02 03:56:56;;;;;;;5.97;3.60;;;;;;;;;;5014827;28;20034;-64
2023/06/02 03:59:21;;;;;;;5.67;3.53;;;;;;;;;;5011431;28;20034;-64
2023/06/02 04:01:47;;;;;;;5.72;3.38;;;;;;;;;;4989497;28;20096;-65
2023/06/02 04:04:12;;;;;;;5.70;4.10;;;;;;;;;;5006207;28;20512;-61
2023/06/02 04:06:38;;;;;;;6.22;3.70;;;;;;;;;;5006318;28;20354;-63
2023/06/02 04:09:03;;;;;;;5.00;3.70;;;;;;;;;;5007366;28;20126;-63
2023/06/02 04:11:28;;;;;;;4.32;3.47;;;;;;;;;;4999118;28;20053;-64
2023/06/02 04:13:53;;;;;;;5.93;3.70;;;;;;;;;;4999461;28;20034;-64
2023/06/02 04:16:19;;;;;;;6.77;3.67;;;;;;;;;;5000884;28;20030;-63
2023/06/02 04:18:44;;;;;;;5.97;3.42;;;;;;;;;;4998467;28;20339;-64
2023/06/02 04:21:09;;;;;;;5.38;3.33;;;;;;;;;;5004446;28;20107;-62
2023/06/02 04:23:35;;;;;;;5.15;3.53;;;;;;;;;;5004613;28;20124;-62
2023/06/02 04:26:00;;;;;;;6.70;3.73;;;;;;;;;;5008923;28;20037;-62
2023/06/02 04:28:25;;;;;;;6.43;4.03;;;;;;;;;;5003834;28;20834;-65
2023/06/02 04:30:54;;;;;;;5.72;3.90;;;;;;;;;;5009430;28;20493;-63
2023/06/02 04:33:20;;;;;;;4.45;3.42;;;;;;;;;;5011067;28;20057;-63
2023/06/02 04:35:45;;;;;;;7.28;3.70;;;;;;;;;;4988147;28;20042;-63
2023/06/02 04:38:11;;;;;;;4.88;3.40;;;;;;;;;;4984084;28;20053;-62
2023/06/02 04:40:39;;;;;;;4.63;3.53;;;;;;;;;;4984174;28;20078;-63
2023/06/02 04:43:05;;;;;;;7.00;3.75;;;;;;;;;;5002827;28;20723;-63
2023/06/02 04:45:30;;;;;;;5.60;3.45;;;;;;;;;;5005707;28;20144;-62
2023/06/02 04:47:55;;;;;;;5.90;3.70;;;;;;;;;;5005100;28;20516;-61
2023/06/02 04:50:21;;;;;;;7.47;3.80;;;;;;;;;;5003849;28;20472;-62
2023/06/02 04:52:46;;;;;;;5.50;3.80;;;;;;;;;;5009476;28;20213;-62
2023/06/02 04:55:12;;;;;;;4.32;3.47;;;;;;;;;;5004296;28;20823;-65
2023/06/02 04:57:37;;;;;;;6.07;3.88;;;;;;;;;;5009509;28;20068;-62
2023/06/02 05:00:04;;;;;;;5.68;3.65;;;;;;;;;;5013252;28;20041;-63
2023/06/02 05:02:30;;;;;;;4.90;3.70;;;;;;;;;;5003255;28;20046;-62
2023/06/02 05:04:55;;;;;;;5.05;3.78;;;;;;;;;;5000451;28;20157;-63
2023/06/02 05:07:21;;;;;;;4.78;3.80;;;;;;;;;;4983181;28;20538;-62
2023/06/02 05:09:46;;;;;;;6.40;3.67;;;;;;;;;;5007073;28;20161;-65
2023/06/02 05:12:11;;;;;;;5.82;3.70;;;;;;;;;;5010180;28;20049;-63
2023/06/02 05:14:36;;;;;;;5.07;3.90;;;;;;;;;;5009703;28;20045;-65
2023/06/02 05:17:02;;;;;;;5.13;3.47;;;;;;;;;;5011500;28;20068;-63
2023/06/02 05:19:27;;;;;;;5.85;3.78;;;;;;;;;;5006938;28;20049;-61
2023/06/02 05:21:52;;;;;;;6.63;3.78;;;;;;;;;;5018981;28;20038;-60
2023/06/02 05:24:18;;;;;;;5.77;3.70;;;;;;;;;;5009154;28;20158;-61
2023/06/02 05:26:43;;;;;;;5.50;3.40;;;;;;;;;;4993082;28;20780;-62
2023/06/02 05:29:08;;;;;;;7.43;3.83;;;;;;;;;;5006069;28;20297;-65
2023/06/02 05:31:33;;;;;;;5.13;3.60;;;;;;;;;;5013040;28;20339;-64
2023/06/02 05:33:59;;;;;;;5.40;3.50;;;;;;;;;;5005353;28;20636;-64
2023/06/02 05:36:24;;;;;;;5.50;3.78;;;;;;;;;;5007047;28;20463;-61
2023/06/02 05:38:49;;;;;;;4.68;3.58;;;;;;;;;;5006018;28;20042;-64
2023/06/02 05:41:14;;;;;;;5.03;3.33;;;;;;;;;;5004293;28;20120;-65
2023/06/02 05:43:40;;;;;;;5.53;3.70;;;;;;;;;;5004876;28;20081;-61
2023/06/02 05:46:05;;;;;;;5.95;3.85;;;;;;;;;;4993168;28;20046;-63
2023/06/02 05:48:31;;;;;;;5.90;3.50;;;;;;;;;;5004336;28;20092;-62
2023/06/02 05:50:56;;;;;;;5.57;3.60;;;;;;;;;;5007006;28;20106;-61
2023/06/02 05:53:21;;;;;;;6.00;3.73;;;;;;;;;;5010624;28;20072;-60
2023/06/02 05:55:46;;;;;;;9.53;3.53;;;;;;;;;;4999487;28;20041;-62
2023/06/02 05:58:12;;;;;;;6.30;3.50;;;;;;;;;;5002439;28;20841;-62
2023/06/02 06:00:37;;;;;;;4.27;3.23;;;;;;;;;;5004820;28;20331;-62
2023/06/02 06:03:03;;;;;;;5.05;3.58;;;;;;;;;;5000902;28;20101;-62
2023/06/02 06:05:28;;;;;;;6.77;3.60;;;;;;;;;;5000140;28;20034;-63
2023/06/02 10:49:53;;;;;;;6.32;3.60;;;;;;;;;;5073611;27;20476;-62
2023/06/02 10:52:19;;;;;;;5.03;4.15;;;;;;;;;;5032103;28;20056;-64
2023/06/02 10:54:45;;;;;;;5.30;3.90;;;;;;;;;;5033878;28;20049;-64
2023/06/02 10:57:12;;;;;;;6.00;4.10;;;;;;;;;;5038835;28;20438;-66
2023/06/02 10:59:37;;;;;;;5.35;3.75;;;;;;;;;;5027133;23;20057;-70
2023/06/02 11:02:03;;;;;;;4.30;3.73;;;;;;;;;;5029066;28;20037;-71
2023/06/02 11:04:34;;;;;;;5.13;4.10;;;;;;;;;;5026975;28;20320;-65
2023/06/02 11:07:09;;;;;;;7.35;3.90;;;;;;;;;;5010899;28;20040;-65
2023/06/02 11:09:42;;;;;;;5.25;3.70;;;;;;;;;;5026509;28;20543;-70
2023/06/02 11:12:08;;;;;;;5.25;3.95;;;;;;;;;;5027580;28;20046;-70
2023/06/02 11:14:53;;;;;;;6.33;3.87;;;;;;;;;;5027581;28;20037;-71
2023/06/02 11:17:33;;;;;;;5.95;3.83;;;;;;;;;;5024309;28;20343;-65
2023/06/02 11:19:59;;;;;;;6.00;4.07;;;;;;;;;;5047326;23;20088;-68
2023/06/02 11:22:25;;;;;;;5.22;3.58;;;;;;;;;;5025755;28;20029;-67
2023/06/02 11:24:50;;;;;;;5.40;3.70;;;;;;;;;;5026464;28;20046;-69
2023/06/02 11:27:16;;;;;;;5.47;3.58;;;;;;;;;;5025997;28;20152;-71
2023/06/02 11:29:44;;;;;;;6.20;3.67;;;;;;;;;;5025268;28;20022;-63
2023/06/02 11:32:09;;;;;;;4.70;3.60;;;;;;;;;;5026495;28;20017;-68
2023/06/02 11:34:34;;;;;;;5.15;3.83;;;;;;;;;;5027485;28;20185;-67
2023/06/02 11:37:16;;;;;;;4.20;3.70;;;;;;;;;;5027457;28;20040;-64
2023/06/02 11:39:51;;;;;;;6.00;3.88;;;;;;;;;;5026850;28;20183;-66
2023/06/02 11:42:17;;;;;;;4.32;3.50;;;;;;;;;;5028419;28;20036;-65
2023/06/02 11:44:49;;;;;;;6.60;3.73;;;;;;;;;;5027503;28;20029;-68
2023/06/02 11:47:20;;;;;;;5.22;3.65;;;;;;;;;;5027649;28;20315;-71
2023/06/02 11:49:46;;;;;;;5.22;3.78;;;;;;;;;;5000736;28;20033;-67
2023/06/02 11:52:11;;;;;;;5.25;3.60;;;;;;;;;;5012367;28;20042;-65
2023/06/02 11:54:50;;;;;;;6.97;3.90;;;;;;;;;;5013756;28;20052;-68
2023/06/02 11:57:28;;;;;;;5.50;3.35;;;;;;;;;;5011692;28;20395;-66
2023/06/02 12:00:15;;;;;;;4.70;3.67;;;;;;;;;;5009591;28;20034;-71
2023/06/02 12:02:43;;;;;;;4.85;3.47;;;;;;;;;;5004763;28;20044;-68
2023/06/02 12:05:09;;;;;;;4.18;3.30;;;;;;;;;;5009153;28;20030;-64
2023/06/02 12:07:35;;;;;;;4.47;3.67;;;;;;;;;;5020766;28;20563;-68
2023/06/02 12:10:00;;;;;;;4.75;3.63;;;;;;;;;;5003008;28;20136;-68
2023/06/02 12:12:27;;;;;;;6.40;3.80;;;;;;;;;;5007952;28;20034;-68
2023/06/02 12:14:52;;;;;;;6.32;3.70;;;;;;;;;;5008754;28;20030;-68
2023/06/02 12:17:17;;;;;;;5.50;3.40;;;;;;;;;;5009478;28;20046;-69
2023/06/02 12:19:42;;;;;;;5.63;3.70;;;;;;;;;;5003892;28;20293;-68
2023/06/02 12:22:14;;;;;;;9.37;3.70;;;;;;;;;;5007670;28;20034;-70
2023/06/02 12:24:39;;;;;;;8.00;3.40;;;;;;;;;;5010654;28;20312;-70
2023/06/02 12:27:05;;;;;;;6.53;4.03;;;;;;;;;;5009541;28;20100;-71
2023/06/02 12:29:30;;;;;;;5.35;3.40;;;;;;;;;;5007039;28;20837;-66
2023/06/02 12:31:56;;;;;;;5.93;3.50;;;;;;;;;;5018236;28;20048;-68
2023/06/02 12:34:21;;;;;;;4.37;3.60;;;;;;;;;;5008943;28;20021;-69
2023/06/02 12:36:46;;;;;;;6.32;3.70;;;;;;;;;;5007274;28;20309;-64
2023/06/02 12:39:11;;;;;;;5.07;3.70;;;;;;;;;;5033906;28;20032;-67
2023/06/02 12:41:37;;;;;;;4.90;3.20;;;;;;;;;;5022450;28;20057;-67
2023/06/02 12:44:02;;;;;;;5.70;3.50;;;;;;;;;;5016214;28;20369;-64
2023/06/02 12:46:27;;;;;;;4.83;3.30;;;;;;;;;;5026053;28;20724;-68
2023/06/02 12:48:53;;;;;;;4.88;3.35;;;;;;;;;;5009352;28;20285;-69
2023/06/02 12:51:18;;;;;;;4.47;3.20;;;;;;;;;;5037857;28;20033;-70
2023/06/02 12:53:43;;;;;;;4.80;3.50;;;;;;;;;;5008251;28;20284;-63
2023/06/02 12:56:08;;;;;;;5.07;3.40;;;;;;;;;;5009850;28;20120;-66
2023/06/02 12:58:34;;;;;;;6.20;3.63;;;;;;;;;;5027580;28;20675;-67
2023/06/02 13:00:59;;;;;;;4.00;3.42;;;;;;;;;;5010168;28;20288;-70
2023/06/02 13:03:24;;;;;;;4.47;3.17;;;;;;;;;;5028915;28;20046;-67
2023/06/02 13:05:55;;;;;;;5.28;3.65;;;;;;;;;;5022065;28;20030;-66
2023/06/02 13:08:20;;;;;;;5.35;3.17;;;;;;;;;;5012175;28;20029;-66
2023/06/02 13:10:45;;;;;;;4.03;3.17;;;;;;;;;;5023022;28;20604;-65
2023/06/02 13:13:11;;;;;;;5.65;3.80;;;;;;;;;;5013486;28;20317;-65
2023/06/02 13:15:36;;;;;;;4.32;3.15;;;;;;;;;;5016710;28;20124;-72
2023/06/02 13:18:02;;;;;;;6.77;3.70;;;;;;;;;;5015473;28;20046;-63
2023/06/02 13:20:27;;;;;;;5.85;3.67;;;;;;;;;;5008019;28;20917;-71
2023/06/02 13:22:52;;;;;;;4.87;3.13;;;;;;;;;;5002263;28;20034;-72
2023/06/02 13:25:17;;;;;;;5.23;3.57;;;;;;;;;;5010340;28;20029;-68
2023/06/02 13:27:43;;;;;;;5.20;3.87;;;;;;;;;;5009159;28;20356;-65
2023/06/02 13:30:08;;;;;;;5.43;3.77;;;;;;;;;;5008466;28;20046;-75
2023/06/02 13:32:33;;;;;;;5.35;3.95;;;;;;;;;;5007262;28;20038;-67
2023/06/02 13:34:58;;;;;;;5.10;3.53;;;;;;;;;;5007387;28;20088;-74
2023/06/02 13:37:24;;;;;;;6.50;4.07;;;;;;;;;;5003047;28;20148;-61
2023/06/02 13:39:49;;;;;;;6.25;3.97;;;;;;;;;;5009339;28;20674;-73
2023/06/02 13:42:15;;;;;;;4.97;4.03;;;;;;;;;;5008346;28;20029;-69
2023/06/02 13:44:40;;;;;;;6.22;4.03;;;;;;;;;;4993643;28;20033;-67
2023/06/02 13:47:06;;;;;;;6.03;3.43;;;;;;;;;;5036195;28;20114;-66
2023/06/02 13:49:31;;;;;;;4.93;3.67;;;;;;;;;;5010272;28;20120;-65
2023/06/02 13:51:56;;;;;;;5.17;3.60;;;;;;;;;;5013839;28;20034;-66
2023/06/02 13:54:22;;;;;;;5.07;3.60;;;;;;;;;;5020321;28;20679;-67
2023/06/02 13:56:48;;;;;;;4.97;3.80;;;;;;;;;;5025357;28;20413;-69
2023/06/02 13:59:13;;;;;;;5.97;3.92;;;;;;;;;;5008858;28;20332;-69
2023/06/02 14:01:39;;;;;;;6.63;3.60;;;;;;;;;;5013499;28;20423;-68
2023/06/02 14:04:06;;;;;;;6.03;3.90;;;;;;;;;;5005731;28;20327;-67
2023/06/02 14:06:35;;;;;;;7.22;4.03;;;;;;;;;;5014223;28;20030;-68
2023/06/02 14:09:00;;;;;;;5.72;3.85;;;;;;;;;;5007574;28;20049;-68
2023/06/02 14:11:26;;;;;;;6.38;3.83;;;;;;;;;;5009330;28;20116;-67
2023/06/02 14:13:51;;;;;;;7.47;3.90;;;;;;;;;;5013094;28;20543;-64
2023/06/02 14:16:17;;;;;;;6.23;4.20;;;;;;;;;;5014566;28;20009;-67
2023/06/02 14:18:42;;;;;;;7.23;4.00;;;;;;;;;;5010531;28;20137;-65
2023/06/02 14:21:08;;;;;;;5.88;3.92;;;;;;;;;;5011205;28;20260;-69
2023/06/02 14:23:33;;;;;;;5.15;3.75;;;;;;;;;;5013448;28;20021;-69
2023/06/02 14:25:58;;;;;;;5.27;4.07;;;;;;;;;;5010466;28;20021;-70
2023/06/02 14:28:23;;;;;;;6.00;4.27;;;;;;;;;;5012892;28;20326;-65
2023/06/02 14:30:49;;;;;;;6.03;4.30;;;;;;;;;;5010185;28;20264;-71
2023/06/02 14:33:14;;;;;;;5.68;4.22;;;;;;;;;;5007541;28;20097;-70
2023/06/02 14:35:40;;;;;;;6.57;3.90;;;;;;;;;;5016612;28;20500;-63
2023/06/02 14:38:05;;;;;;;6.30;3.87;;;;;;;;;;5008270;28;20330;-66
2023/06/02 14:40:30;;;;;;;7.00;3.90;;;;;;;;;;5015832;28;20261;-67
2023/06/02 14:42:55;;;;;;;7.73;4.17;;;;;;;;;;5011239;28;20021;-71
2023/06/02 14:45:20;;;;;;;6.00;3.70;;;;;;;;;;4992280;28;20268;-64
2023/06/02 14:47:47;;;;;;;8.90;4.47;;;;;;;;;;5021452;28;20068;-69
2023/06/02 14:50:12;;;;;;;6.00;4.07;;;;;;;;;;5008553;28;20013;-71
2023/06/02 14:52:38;;;;;;;6.63;4.00;;;;;;;;;;5006882;28;20163;-68
2023/06/02 14:55:04;;;;;;;6.60;3.83;;;;;;;;;;5013663;28;20487;-66
2023/06/02 14:57:29;;;;;;;7.75;3.90;;;;;;;;;;4994290;28;20056;-64
2023/06/02 14:59:54;;;;;;;6.35;4.07;;;;;;;;;;5011756;28;20032;-64
2023/06/02 15:02:20;;;;;;;5.83;4.03;;;;;;;;;;5009997;28;20435;-66
2023/06/02 15:04:45;;;;;;;5.93;3.63;;;;;;;;;;5008640;28;20284;-67
2023/06/02 15:07:10;;;;;;;6.13;3.60;;;;;;;;;;4993583;28;20427;-63
2023/06/02 15:09:35;;;;;;;5.53;3.92;;;;;;;;;;5010536;28;20275;-64
2023/06/02 15:12:01;;;;;;;7.20;3.77;;;;;;;;;;4992948;28;20029;-62
2023/06/02 15:14:26;;;;;;;5.95;3.78;;;;;;;;;;5010389;28;20284;-65
2023/06/02 15:16:51;;;;;;;6.10;3.80;;;;;;;;;;5010839;28;20061;-66
2023/06/02 15:19:16;;;;;;;7.83;4.00;;;;;;;;;;5007033;28;20041;-64
2023/06/02 15:21:42;;;;;;;6.63;3.83;;;;;;;;;;5010507;28;20018;-65
2023/06/02 15:24:07;;;;;;;5.93;3.63;;;;;;;;;;5011060;28;20303;-62
2023/06/02 15:26:32;;;;;;;6.63;4.07;;;;;;;;;;5014733;28;20490;-65
2023/06/02 15:28:58;;;;;;;4.83;3.70;;;;;;;;;;5011734;28;20438;-68
2023/06/02 15:31:23;;;;;;;6.33;4.20;;;;;;;;;;5004032;28;20281;-68
2023/06/02 15:33:48;;;;;;;6.83;4.00;;;;;;;;;;5002173;28;20132;-65
2023/06/02 15:36:13;;;;;;;6.63;3.93;;;;;;;;;;5014637;28;20312;-67
2023/06/02 15:38:39;;;;;;;6.73;4.20;;;;;;;;;;5017545;28;20742;-64
2023/06/02 15:41:04;;;;;;;9.40;4.50;;;;;;;;;;5015553;28;20265;-67
2023/06/02 15:43:29;;;;;;;8.23;4.82;;;;;;;;;;5018959;28;20029;-70
2023/06/02 15:45:55;;;;;;;7.18;4.10;;;;;;;;;;5016833;28;20759;-64
2023/06/02 15:48:20;;;;;;;8.45;4.38;;;;;;;;;;4997289;28;20026;-70
2023/06/02 15:50:45;;;;;;;5.57;4.13;;;;;;;;;;5014891;28;20129;-72
2023/06/02 15:53:11;;;;;;;6.47;3.93;;;;;;;;;;5022289;28;20277;-71
2023/06/02 15:55:36;;;;;;;6.75;4.65;;;;;;;;;;5034983;28;20025;-69
2023/06/02 15:58:01;;;;;;;5.97;4.20;;;;;;;;;;5013404;28;20820;-64
2023/06/02 16:00:27;;;;;;;6.78;3.88;;;;;;;;;;5027100;28;20264;-67
2023/06/02 16:02:52;;;;;;;6.45;3.80;;;;;;;;;;5016053;28;20053;-66
2023/06/02 16:05:17;;;;;;;5.88;4.32;;;;;;;;;;5013623;28;20029;-71
2023/06/02 16:07:43;;;;;;;6.10;4.25;;;;;;;;;;5014530;28;20021;-62
2023/06/02 16:10:08;;;;;;;8.10;4.57;;;;;;;;;;5014530;28;20029;-64
2023/06/02 16:12:34;;;;;;;6.88;4.00;;;;;;;;;;5017470;28;20022;-64
2023/06/02 16:14:59;;;;;;;5.63;4.30;;;;;;;;;;5015749;28;20025;-68
2023/06/02 16:17:24;;;;;;;6.43;4.10;;;;;;;;;;5012886;28;20300;-63
2023/06/02 16:19:49;;;;;;;5.80;4.23;;;;;;;;;;5012212;28;20814;-69
2023/06/02 16:22:15;;;;;;;8.73;4.53;;;;;;;;;;5004938;28;20287;-63
2023/06/02 16:24:40;;;;;;;7.55;4.70;;;;;;;;;;5016353;28;20507;-69
2023/06/02 16:27:05;;;;;;;8.20;4.27;;;;;;;;;;5016145;28;20115;-70
2023/06/02 16:29:31;;;;;;;6.13;4.20;;;;;;;;;;5016051;28;20438;-63
2023/06/02 16:31:57;;;;;;;9.15;4.18;;;;;;;;;;4996642;28;20122;-64
2023/06/02 16:34:22;;;;;;;7.10;3.85;;;;;;;;;;4986437;28;20607;-65
2023/06/02 16:36:47;;;;;;;6.90;4.37;;;;;;;;;;5022597;28;20040;-67
2023/06/02 16:39:13;;;;;;;6.43;4.50;;;;;;;;;;5003012;28;20300;-70
2023/06/02 16:41:40;;;;;;;6.83;4.60;;;;;;;;;;5018074;28;20272;-69
2023/06/02 16:44:05;;;;;;;9.27;4.95;;;;;;;;;;5017541;28;20997;-67
2023/06/02 16:46:30;;;;;;;7.43;4.68;;;;;;;;;;5011851;28;20046;-64
2023/06/02 16:48:55;;;;;;;6.57;4.60;;;;;;;;;;5013345;28;20826;-67
2023/06/02 16:51:21;;;;;;;8.40;4.63;;;;;;;;;;4996323;28;20045;-68
2023/06/02 16:53:47;;;;;;;8.65;4.75;;;;;;;;;;4996261;28;20845;-70
2023/06/02 16:56:12;;;;;;;6.35;4.20;;;;;;;;;;5003027;28;20571;-70
2023/06/02 16:58:38;;;;;;;7.82;4.50;;;;;;;;;;5011564;28;20046;-67
2023/06/02 17:01:03;;;;;;;9.17;5.00;;;;;;;;;;5011934;28;20030;-68
2023/06/02 17:03:29;;;;;;;8.25;5.30;;;;;;;;;;5013943;28;20307;-66
2023/06/02 17:05:54;;;;;;;9.30;5.32;;;;;;;;;;5009415;28;20515;-69
2023/06/02 17:08:19;;;;;;;7.55;4.82;;;;;;;;;;5007721;28;20045;-69
2023/06/02 17:10:45;;;;;;;10.40;4.80;;;;;;;;;;5007983;28;20042;-70
2023/06/02 17:13:10;;;;;;;9.97;5.20;;;;;;;;;;5007624;28;20025;-66
2023/06/02 17:15:35;;;;;;;11.20;5.27;;;;;;;;;;5001618;28;20264;-67
2023/06/02 17:18:00;;;;;;;7.38;4.63;;;;;;;;;;5004708;28;20374;-70
2023/06/02 17:20:26;;;;;;;8.68;4.53;;;;;;;;;;5007706;28;20761;-67
2023/06/02 17:22:51;;;;;;;8.00;4.80;;;;;;;;;;4998688;28;20038;-65
2023/06/02 17:25:16;;;;;;;10.85;5.03;;;;;;;;;;4995560;28;20299;-70
2023/06/02 17:27:42;;;;;;;9.73;5.32;;;;;;;;;;4999532;28;20199;-64
2023/06/02 17:30:08;;;;;;;9.05;4.88;;;;;;;;;;5010176;28;20059;-65
2023/06/02 17:32:34;;;;;;;8.32;4.95;;;;;;;;;;4993879;28;20044;-69
2023/06/02 17:34:59;;;;;;;10.85;5.20;;;;;;;;;;4996941;28;20108;-69
2023/06/02 17:37:26;;;;;;;9.45;5.10;;;;;;;;;;5003012;28;20136;-63
2023/06/02 17:39:53;;;;;;;10.48;5.03;;;;;;;;;;5020066;28;20495;-66
2023/06/02 17:42:18;;;;;;;10.23;4.55;;;;;;;;;;5018318;28;20034;-71
2023/06/02 17:44:44;;;;;;;7.80;5.17;;;;;;;;;;5016961;28;20040;-69
2023/06/02 17:47:10;;;;;;;8.80;5.18;;;;;;;;;;5019891;28;20295;-70
2023/06/02 17:49:35;;;;;;;8.18;5.10;;;;;;;;;;5002234;28;20131;-66
2023/06/02 17:52:02;;;;;;;10.27;5.80;;;;;;;;;;4991883;28;20096;-68
2023/06/02 17:54:27;;;;;;;8.88;5.38;;;;;;;;;;5015969;28;20034;-67
2023/06/02 17:56:53;;;;;;;8.27;5.67;;;;;;;;;;5007159;28;20044;-68
2023/06/02 17:59:18;;;;;;;10.63;6.60;;;;;;;;;;5012388;28;20049;-67
2023/06/02 18:01:44;;;;;;;11.97;7.53;;;;;;;;;;5013583;28;20045;-69
2023/06/02 18:04:09;;;;;;;11.10;7.07;;;;;;;;;;5013450;28;20056;-69
2023/06/02 18:06:36;;;;;;;13.17;7.97;;;;;;;;;;5015897;28;20050;-68
2023/06/02 18:09:02;;;;;;;12.18;8.30;;;;;;;;;;5011782;28;20291;-68
2023/06/02 18:11:27;;;;;;;12.40;8.43;;;;;;;;;;5008730;28;20041;-68
2023/06/02 18:13:52;;;;;;;17.23;12.67;;;;;;;;;;5013346;28;20481;-69
2023/06/02 18:16:18;;;;;;;15.05;8.18;;;;;;;;;;5015234;28;20293;-68
2023/06/02 18:18:43;;;;;;;13.75;8.80;;;;;;;;;;5010004;28;20111;-66
2023/06/02 18:21:08;;;;;;;14.87;8.40;;;;;;;;;;5010472;28;20042;-67
2023/06/02 18:23:34;;;;;;;11.37;6.87;;;;;;;;;;5013381;28;20805;-68
2023/06/02 18:25:59;;;;;;;15.02;7.75;;;;;;;;;;5011046;28;20299;-66
2023/06/02 18:28:24;;;;;;;12.30;8.20;;;;;;;;;;5016625;28;20033;-69
2023/06/02 18:30:50;;;;;;;17.17;8.48;;;;;;;;;;5003775;28;20045;-69
2023/06/02 18:33:15;;;;;;;13.93;8.07;;;;;;;;;;5012006;28;20038;-65
2023/06/02 18:35:40;;;;;;;14.00;7.77;;;;;;;;;;5016946;28;20060;-62
2023/06/02 18:38:06;;;;;;;11.07;7.43;;;;;;;;;;5020040;28;20801;-60
2023/06/02 18:40:31;;;;;;;9.38;6.10;;;;;;;;;;5027210;28;20115;-65
2023/06/02 18:42:56;;;;;;;9.73;5.63;;;;;;;;;;5012297;28;20034;-62
2023/06/02 18:45:21;;;;;;;11.10;6.03;;;;;;;;;;4992355;28;20304;-64
2023/06/02 18:47:48;;;;;;;9.77;6.40;;;;;;;;;;5013316;28;20423;-63
2023/06/02 18:50:13;;;;;;;12.90;6.20;;;;;;;;;;5019145;28;20121;-65
2023/06/02 18:52:39;;;;;;;11.18;5.25;;;;;;;;;;5027312;28;20105;-63
2023/06/02 18:55:04;;;;;;;9.53;5.23;;;;;;;;;;5021079;28;20128;-61
2023/06/02 18:57:29;;;;;;;6.50;4.68;;;;;;;;;;5009569;28;20322;-62
2023/06/02 18:59:54;;;;;;;7.30;4.67;;;;;;;;;;5011162;28;20091;-65
2023/06/02 19:02:20;;;;;;;7.23;4.53;;;;;;;;;;5038007;28;20275;-66
2023/06/02 19:04:45;;;;;;;8.40;4.60;;;;;;;;;;5028603;28;20911;-63
2023/06/02 19:07:11;;;;;;;7.07;4.37;;;;;;;;;;5003488;28;20048;-63
2023/06/02 19:09:37;;;;;;;8.73;4.50;;;;;;;;;;5002835;28;20665;-62
2023/06/02 19:12:03;;;;;;;9.57;4.53;;;;;;;;;;5028396;28;20625;-63
2023/06/02 19:14:28;;;;;;;6.90;4.88;;;;;;;;;;5028518;28;20092;-63
2023/06/02 19:16:53;;;;;;;6.50;4.20;;;;;;;;;;5026765;28;20056;-64